Latest Weather Observations for Hay Point

IDQ60801

Issued at 12:22 am EST Tuesday 26 January 2021 (issued every 10 minutes, with the page automatically refreshed every 10 minutes)

About weather observations | Map of weather stations | Latest weather observations for QLD | Other Formats
Station Details ID: 033317 Name: HAY POINT Lat: -21.29 Lon: 149.30 Height: 7.0 m
Data from the previous 72 hours. | See also: Recent months for locations in Queensland
Date/Time
EST
Temp
°C
App
Temp
°C
Dew
Point
°C
Rel
Hum
%
Delta-T
°C
Wind Press
QNH
hPa
Press
MSL
hPa
Rain since
9am
mm
Dir  Spd
km/h
Gust
km/h
Spd
kts
Gust
kts
26/12:00am - - - - - E 26 30 14 16 - - -
 
Date/Time
EST
Temp
°C
App
Temp
°C
Dew
Point
°C
Rel
Hum
%
Delta-T
°C
Wind Press
QNH
hPa
Press
MSL
hPa
Rain since
9am
mm
Dir  Spd
km/h
Gust
km/h
Spd
kts
Gust
kts
25/11:30pm - - - - - E 26 30 14 16 - - -
25/11:00pm - - - - - E 28 35 15 19 - - -
25/10:30pm - - - - - E 26 33 14 18 - - -
25/10:00pm - - - - - E 28 32 15 17 - - -
25/09:30pm - - - - - E 26 30 14 16 - - -
25/09:00pm - - - - - ESE 30 33 16 18 - - -
25/08:30pm - - - - - E 28 32 15 17 - - -
25/08:00pm - - - - - E 28 32 15 17 - - -
25/07:30pm - - - - - ESE 28 32 15 17 - - -
25/07:00pm - - - - - ESE 24 28 13 15 - - -
25/06:30pm - - - - - ESE 22 28 12 15 - - -
25/06:00pm - - - - - ESE 22 28 12 15 - - -
25/05:30pm - - - - - ESE 28 32 15 17 - - -
25/05:00pm - - - - - ESE 28 33 15 18 - - -
25/04:30pm - - - - - ESE 32 37 17 20 - - -
25/04:00pm - - - - - ESE 30 35 16 19 - - -
25/03:30pm - - - - - ESE 32 37 17 20 - - -
25/03:00pm - - - - - ESE 30 35 16 19 - - -
25/02:30pm - - - - - ESE 26 33 14 18 - - -
25/02:00pm - - - - - SE 22 32 12 17 - - -
25/01:30pm - - - - - SE 22 30 12 16 - - -
25/01:00pm - - - - - SE 24 32 13 17 - - -
25/12:30pm - - - - - SE 28 33 15 18 - - -
25/12:00pm - - - - - SE 24 30 13 16 - - -
25/11:30am - - - - - SE 26 32 14 17 - - -
25/11:00am - - - - - SE 30 33 16 18 - - -
25/10:30am - - - - - SE 28 32 15 17 - - -
25/10:00am - - - - - SE 30 33 16 18 - - -
25/09:30am - - - - - SSE 20 28 11 15 - - -
25/09:00am - - - - - SSW 19 28 10 15 - - -
25/08:30am - - - - - SSE 7 11 4 6 - - -
25/08:00am - - - - - S 22 28 12 15 - - -
25/07:30am - - - - - SSW 19 24 10 13 - - -
25/07:00am - - - - - S 20 28 11 15 - - -
25/06:30am - - - - - SSW 19 26 10 14 - - -
25/06:00am - - - - - SSW 19 22 10 12 - - -
25/05:30am - - - - - SSW 17 22 9 12 - - -
25/05:00am - - - - - SSW 19 22 10 12 - - -
25/04:30am - - - - - SSW 15 19 8 10 - - -
25/04:00am - - - - - S 11 15 6 8 - - -
25/03:30am - - - - - SSE 19 32 10 17 - - -
25/03:00am - - - - - SE 20 28 11 15 - - -
25/02:30am - - - - - SE 20 26 11 14 - - -
25/02:00am - - - - - SE 22 28 12 15 - - -
25/01:30am - - - - - SE 20 28 11 15 - - -
25/01:00am - - - - - SE 22 30 12 16 - - -
25/12:30am - - - - - ESE 26 32 14 17 - - -
25/12:00am - - - - - ESE 28 33 15 18 - - -
 
Date/Time
EST
Temp
°C
App
Temp
°C
Dew
Point
°C
Rel
Hum
%
Delta-T
°C
Wind Press
QNH
hPa
Press
MSL
hPa
Rain since
9am
mm
Dir  Spd
km/h
Gust
km/h
Spd
kts
Gust
kts
24/11:30pm - - - - - SE 24 33 13 18 - - -
24/11:00pm - - - - - SE 28 33 15 18 - - -
24/10:30pm - - - - - ESE 32 37 17 20 - - -
24/10:00pm - - - - - ESE 30 35 16 19 - - -
24/09:30pm - - - - - ESE 35 43 19 23 - - -
24/09:00pm - - - - - ESE 35 43 19 23 - - -
24/08:30pm - - - - - ESE 35 41 19 22 - - -
24/08:00pm - - - - - ESE 35 41 19 22 - - -
24/07:30pm - - - - - ESE 32 39 17 21 - - -
24/07:00pm - - - - - ESE 28 33 15 18 - - -
24/06:30pm - - - - - ESE 24 30 13 16 - - -
24/06:00pm - - - - - ESE 26 32 14 17 - - -
24/05:30pm - - - - - ESE 22 30 12 16 - - -
24/05:00pm - - - - - SE 22 30 12 16 - - -
24/04:30pm - - - - - SE 22 30 12 16 - - -
24/04:00pm - - - - - SE 19 26 10 14 - - -
24/03:30pm - - - - - SE 22 28 12 15 - - -
24/03:00pm - - - - - ESE 24 32 13 17 - - -
24/02:30pm - - - - - SE 22 28 12 15 - - -
24/02:00pm - - - - - SE 20 28 11 15 - - -
24/01:30pm - - - - - SE 28 33 15 18 - - -
24/01:00pm - - - - - SSE 28 32 15 17 - - -
24/12:30pm - - - - - SSE 32 37 17 20 - - -
24/12:00pm - - - - - SSE 33 41 18 22 - - -
24/11:30am - - - - - SSE 32 35 17 19 - - -
24/11:00am - - - - - SE 24 33 13 18 - - -
24/10:30am - - - - - SE 28 32 15 17 - - -
24/10:00am - - - - - SSE 30 33 16 18 - - -
24/09:30am - - - - - SE 28 33 15 18 - - -
24/09:00am - - - - - SSE 20 30 11 16 - - -
24/08:30am - - - - - S 20 26 11 14 - - -
24/08:00am - - - - - S 19 26 10 14 - - -
24/07:30am - - - - - SSW 15 20 8 11 - - -
24/07:00am - - - - - S 17 22 9 12 - - -
24/06:30am - - - - - SE 24 30 13 16 - - -
24/06:00am - - - - - SE 22 30 12 16 - - -
24/05:30am - - - - - ESE 24 32 13 17 - - -
24/05:00am - - - - - ESE 26 30 14 16 - - -
24/04:30am - - - - - ESE 28 32 15 17 - - -
24/04:00am - - - - - ESE 28 32 15 17 - - -
24/03:30am - - - - - ESE 26 33 14 18 - - -
24/03:00am - - - - - ESE 30 35 16 19 - - -
24/02:30am - - - - - E 30 33 16 18 - - -
24/02:00am - - - - - ESE 26 35 14 19 - - -
24/01:30am - - - - - ESE 28 33 15 18 - - -
24/01:00am - - - - - ESE 28 32 15 17 - - -
24/12:30am - - - - - ESE 26 32 14 17 - - -
24/12:00am - - - - - ESE 28 32 15 17 - - -
 
Date/Time
EST
Temp
°C
App
Temp
°C
Dew
Point
°C
Rel
Hum
%
Delta-T
°C
Wind Press
QNH
hPa
Press
MSL
hPa
Rain since
9am
mm
Dir  Spd
km/h
Gust
km/h
Spd
kts
Gust
kts
23/11:30pm - - - - - ESE 28 32 15 17 - - -
23/11:00pm - - - - - E 30 35 16 19 - - -
23/10:30pm - - - - - E 28 32 15 17 - - -
23/10:00pm - - - - - E 32 35 17 19 - - -
23/09:30pm - - - - - E 30 33 16 18 - - -
23/09:00pm - - - - - E 32 35 17 19 - - -
23/08:30pm - - - - - E 30 35 16 19 - - -
23/08:00pm - - - - - ESE 30 35 16 19 - - -
23/07:30pm - - - - - E 32 35 17 19 - - -
23/07:00pm - - - - - ESE 32 35 17 19 - - -
23/06:30pm - - - - - ESE 30 33 16 18 - - -
23/06:00pm - - - - - E 30 35 16 19 - - -
23/05:30pm - - - - - E 32 35 17 19 - - -
23/05:00pm - - - - - E 32 37 17 20 - - -
23/04:30pm - - - - - E 30 35 16 19 - - -
23/04:00pm - - - - - E 30 33 16 18 - - -
23/03:30pm - - - - - E 30 35 16 19 - - -
23/03:00pm - - - - - ESE 32 33 17 18 - - -
23/02:30pm - - - - - ESE 28 35 15 19 - - -
23/02:00pm - - - - - SE 26 33 14 18 - - -
23/01:30pm - - - - - SE 26 35 14 19 - - -
23/01:00pm - - - - - SE 30 35 16 19 - - -
23/12:30pm - - - - - SE 32 41 17 22 - - -
23/12:00pm - - - - - SSE 30 35 16 19 - - -
23/11:30am - - - - - SSE 32 35 17 19 - - -
23/11:00am - - - - - SSE 30 35 16 19 - - -
23/10:30am - - - - - SSE 30 33 16 18 - - -
23/10:00am - - - - - SE 22 32 12 17 - - -
23/09:30am - - - - - SE 24 32 13 17 - - -
23/09:00am - - - - - SE 22 30 12 16 - - -
23/08:30am - - - - - SE 24 30 13 16 - - -
23/08:00am - - - - - SSE 15 19 8 10 - - -
23/07:30am - - - - - SSW 15 20 8 11 - - -
23/07:00am - - - - - SSE 17 26 9 14 - - -
23/06:30am - - - - - SE 22 28 12 15 - - -
23/06:00am - - - - - SE 19 26 10 14 - - -
23/05:30am - - - - - SE 17 24 9 13 - - -
23/05:00am - - - - - SE 17 22 9 12 - - -
23/04:30am - - - - - ESE 19 24 10 13 - - -
23/04:00am - - - - - SE 17 19 9 10 - - -
23/03:30am - - - - - ESE 17 20 9 11 - - -
23/03:00am - - - - - ESE 17 22 9 12 - - -
23/02:30am - - - - - ESE 19 22 10 12 - - -
23/02:00am - - - - - ESE 17 20 9 11 - - -
23/01:30am - - - - - ESE 19 22 10 12 - - -
23/01:00am - - - - - ESE 17 20 9 11 - - -
23/12:30am - - - - - ESE 17 20 9 11 - - -

Other formats

Comma delimited format used in spreadsheet applications
http://www.bom.gov.au/fwo/IDQ60801/IDQ60801.99367.axf

JavaScript Object Notation format (JSON) in row-major order
http://www.bom.gov.au/fwo/IDQ60801/IDQ60801.99367.json

Data quality

Most of these data are generated automatically and are frequently updated. Quality checks on data are not normally performed. It is possible for incorrect values to appear. Refer to information at About Latest Weather Observations and please check the disclaimer before using these data.